createdAt,value
2023-02-11T00:02:14.564Z,66.03
2023-02-11T00:04:42.778Z,65.63
2023-02-11T00:07:10.602Z,55.70
2023-02-11T00:09:38.732Z,53.03
2023-02-11T00:12:06.590Z,52.25
2023-02-11T00:14:34.678Z,57.42
2023-02-11T00:17:02.410Z,46.40
2023-02-11T00:19:30.738Z,45.65
2023-02-11T00:21:58.579Z,58.65
2023-02-11T00:24:26.768Z,63.25
2023-02-11T00:26:54.526Z,67.03
2023-02-11T00:29:22.693Z,92.73
2023-02-11T00:31:50.484Z,83.90
2023-02-11T00:34:18.542Z,62.63
2023-02-11T00:36:46.260Z,52.60
2023-02-11T00:39:15.869Z,36.05
2023-02-11T00:41:43.473Z,45.00
2023-02-11T00:44:14.071Z,47.40
2023-02-11T00:46:41.981Z,48.10
2023-02-11T00:49:12.005Z,45.72
2023-02-11T00:51:40.227Z,60.75
2023-02-11T00:54:08.889Z,39.47
2023-02-11T00:56:36.871Z,50.13
2023-02-11T00:59:05.075Z,38.15
2023-02-11T01:01:32.986Z,45.20
2023-02-11T01:04:01.127Z,49.63
2023-02-11T01:06:29.185Z,55.57
2023-02-11T01:08:57.256Z,43.33
2023-02-11T01:11:24.990Z,45.80
2023-02-11T01:13:53.106Z,49.38
2023-02-11T01:16:21.888Z,47.97
2023-02-11T01:18:50.452Z,48.73
2023-02-11T01:21:18.983Z,52.00
2023-02-11T01:23:47.027Z,57.40
2023-02-11T01:26:14.778Z,69.72
2023-02-11T01:28:42.926Z,46.53
2023-02-11T01:31:10.980Z,40.40
2023-02-11T01:33:39.335Z,58.70
2023-02-11T01:36:07.974Z,59.38
2023-02-11T01:38:36.918Z,50.30
2023-02-11T01:41:07.453Z,43.10
2023-02-11T01:43:43.024Z,50.30
2023-02-11T01:46:25.514Z,42.38
2023-02-11T01:49:00.228Z,52.08
2023-02-11T01:51:34.603Z,53.20
2023-02-11T01:54:25.022Z,45.90
2023-02-11T01:57:13.872Z,49.77
2023-02-11T01:59:50.685Z,56.05
2023-02-11T02:02:24.782Z,39.90
2023-02-11T02:05:21.079Z,48.63
2023-02-11T02:08:21.733Z,48.05
2023-02-11T02:11:01.313Z,42.63
2023-02-11T02:13:32.649Z,50.80
2023-02-11T02:16:22.710Z,52.42
2023-02-11T02:19:28.298Z,51.50
2023-02-11T02:22:29.367Z,58.85
2023-02-11T02:25:22.097Z,56.80
2023-02-11T02:28:13.101Z,36.60
2023-02-11T02:31:09.590Z,52.70
2023-02-11T02:34:00.755Z,50.38
2023-02-11T02:37:13.789Z,41.45
2023-02-11T02:39:42.353Z,63.60
2023-02-11T02:42:10.538Z,56.08
2023-02-11T02:44:38.728Z,61.00
2023-02-11T02:47:06.533Z,56.65
2023-02-11T02:49:34.639Z,59.70
2023-02-11T02:52:07.966Z,62.93
2023-02-11T02:55:02.592Z,61.45
2023-02-11T02:57:39.553Z,55.25
2023-02-11T03:00:42.148Z,59.58
2023-02-11T03:03:29.040Z,57.55
2023-02-11T03:06:06.441Z,58.07
2023-02-11T03:08:55.279Z,54.80
2023-02-11T03:11:24.826Z,62.17
2023-02-11T03:13:54.376Z,40.47
2023-02-11T03:16:27.564Z,60.00
2023-02-11T03:19:24.057Z,43.47
2023-02-11T03:21:54.020Z,62.75
2023-02-11T03:24:31.660Z,83.45
2023-02-11T03:27:10.338Z,49.55
2023-02-11T03:29:49.669Z,58.72
2023-02-11T03:32:27.559Z,51.17
2023-02-11T03:35:05.310Z,59.80
2023-02-11T03:37:47.102Z,69.90
2023-02-11T03:40:26.905Z,59.50
2023-02-11T03:42:58.342Z,47.80
2023-02-11T03:45:27.940Z,61.47
2023-02-11T03:48:21.420Z,51.85
2023-02-11T03:50:51.152Z,72.20
2023-02-11T03:53:22.322Z,49.47
2023-02-11T03:55:52.935Z,70.13
2023-02-11T03:58:21.465Z,54.93
2023-02-11T04:00:50.210Z,65.05
2023-02-11T04:03:19.452Z,51.33
2023-02-11T04:05:47.410Z,69.80
2023-02-11T04:08:15.705Z,55.03
2023-02-11T04:10:43.360Z,57.37
2023-02-11T04:13:11.519Z,37.17
2023-02-11T04:15:39.465Z,78.60
2023-02-11T04:18:07.900Z,58.55
2023-02-11T04:20:35.570Z,63.88
2023-02-11T04:23:03.780Z,67.93
2023-02-11T04:25:31.549Z,56.83
2023-02-11T04:27:59.749Z,66.88
2023-02-11T04:30:27.549Z,62.47
2023-02-11T04:32:55.718Z,65.57
2023-02-11T04:35:23.448Z,62.60
2023-02-11T04:37:51.616Z,71.40
2023-02-11T04:40:19.446Z,68.45
2023-02-11T04:42:47.732Z,77.97
2023-02-11T04:45:15.751Z,73.22
2023-02-11T04:47:43.978Z,66.33
2023-02-11T04:50:11.732Z,65.38
2023-02-11T04:52:39.908Z,76.13
2023-02-11T04:55:07.884Z,67.60
2023-02-11T04:57:35.967Z,83.63
2023-02-11T05:00:04.748Z,78.70
2023-02-11T05:02:33.167Z,67.88
2023-02-11T05:05:01.476Z,69.53
2023-02-11T05:07:30.019Z,59.50
2023-02-11T05:09:57.794Z,71.57
2023-02-11T05:12:26.051Z,63.43
2023-02-11T05:14:53.896Z,57.53
2023-02-11T05:17:22.142Z,63.72
2023-02-11T05:19:49.955Z,66.75
2023-02-11T05:22:18.268Z,70.68
2023-02-11T05:24:45.950Z,68.70
2023-02-11T05:27:14.184Z,71.75
2023-02-11T05:29:42.041Z,69.35
2023-02-11T05:32:12.643Z,64.93
2023-02-11T05:34:40.421Z,75.00
2023-02-11T05:37:08.934Z,84.17
2023-02-11T05:39:36.811Z,58.83
2023-02-11T05:42:06.374Z,56.53
2023-02-11T05:44:34.186Z,53.33
2023-02-11T05:47:02.608Z,56.53
2023-02-11T05:49:30.688Z,65.57
2023-02-11T05:52:00.215Z,48.80
2023-02-11T05:54:28.026Z,59.40
2023-02-11T05:56:56.271Z,68.05
2023-02-11T05:59:23.891Z,56.67
2023-02-11T06:01:52.203Z,56.83
2023-02-11T06:04:20.087Z,63.20
2023-02-11T06:06:48.281Z,48.83
2023-02-11T06:09:16.232Z,58.00
2023-02-11T06:11:44.603Z,62.65
2023-02-11T06:14:12.455Z,57.93
2023-02-11T06:16:40.794Z,59.22
2023-02-11T06:19:13.171Z,64.63
2023-02-11T06:21:44.079Z,62.95
2023-02-11T06:24:14.225Z,65.68
2023-02-11T06:26:43.593Z,73.90
2023-02-11T06:29:13.898Z,72.13
2023-02-11T06:31:42.329Z,80.53
2023-02-11T06:34:11.164Z,47.80
2023-02-11T06:36:41.476Z,101.65
2023-02-11T06:39:09.405Z,73.50
2023-02-11T06:41:39.416Z,53.65
2023-02-11T06:44:08.353Z,74.72
2023-02-11T06:46:37.025Z,67.38
2023-02-11T06:49:05.040Z,56.08
2023-02-11T06:51:33.504Z,66.97
2023-02-11T06:54:01.449Z,68.30
2023-02-11T06:56:30.768Z,74.22
2023-02-11T06:58:58.880Z,60.55
2023-02-11T07:01:31.338Z,96.72
2023-02-11T07:04:00.194Z,86.17
2023-02-11T07:06:28.709Z,78.78
2023-02-11T07:08:57.002Z,75.00
2023-02-11T07:11:29.615Z,104.43
2023-02-11T07:14:04.875Z,77.65
2023-02-11T07:16:33.740Z,111.63
2023-02-11T07:19:02.125Z,80.97
2023-02-11T07:21:30.529Z,75.30
2023-02-11T07:23:58.352Z,86.25
2023-02-11T07:26:31.639Z,101.65
2023-02-11T07:29:01.132Z,90.07
2023-02-11T07:31:42.249Z,91.43
2023-02-11T07:34:10.958Z,87.45
2023-02-11T07:36:39.141Z,89.45
2023-02-11T07:39:11.277Z,96.78
2023-02-11T07:41:40.905Z,71.60
2023-02-11T07:44:09.151Z,95.30
2023-02-11T07:46:37.462Z,93.82
2023-02-11T07:49:06.281Z,79.13
2023-02-11T07:51:34.554Z,66.93
2023-02-11T07:54:04.419Z,81.93
2023-02-11T07:56:34.473Z,75.22
2023-02-11T07:59:03.889Z,80.97
2023-02-11T08:01:33.897Z,81.03
2023-02-11T08:04:05.091Z,66.93
2023-02-11T08:06:44.566Z,91.67
2023-02-11T08:09:20.918Z,90.18
2023-02-11T08:11:49.446Z,83.88
2023-02-11T08:14:17.426Z,80.60
2023-02-11T08:17:10.965Z,70.80
2023-02-11T08:19:39.531Z,82.07
2023-02-11T08:22:07.653Z,79.72
2023-02-11T08:24:35.577Z,64.75
2023-02-11T08:27:03.826Z,66.32
2023-02-11T08:29:31.828Z,65.45
2023-02-11T08:32:36.145Z,67.13
2023-02-11T08:35:04.316Z,62.25
2023-02-11T08:37:33.376Z,64.53
2023-02-11T08:40:01.368Z,73.65
2023-02-11T08:42:29.583Z,70.68
2023-02-11T08:44:57.547Z,64.03
2023-02-11T08:47:25.839Z,62.80
2023-02-11T08:49:53.804Z,59.58
2023-02-11T08:52:22.092Z,69.85
2023-02-11T08:54:51.268Z,58.53
2023-02-11T08:57:19.586Z,61.60
2023-02-11T08:59:47.707Z,63.50
2023-02-11T09:02:16.056Z,59.65
2023-02-11T09:04:44.403Z,79.13
2023-02-11T09:07:13.890Z,69.75
2023-02-11T09:09:42.500Z,66.70
2023-02-11T09:12:10.719Z,67.18
2023-02-11T09:14:40.927Z,71.53
2023-02-11T09:17:11.010Z,62.05
2023-02-11T09:19:39.844Z,66.32
2023-02-11T09:22:08.543Z,63.10
2023-02-11T09:24:37.145Z,64.95
2023-02-11T09:27:06.450Z,59.17
2023-02-11T09:29:34.472Z,68.95
2023-02-11T09:32:02.816Z,63.03
2023-02-11T09:34:30.748Z,63.00
2023-02-11T09:36:59.154Z,60.10
2023-02-11T09:39:27.974Z,59.10
2023-02-11T09:42:33.411Z,62.97
2023-02-11T09:45:03.120Z,63.47
2023-02-11T09:47:31.631Z,157.13
2023-02-11T09:50:24.435Z,76.88
2023-02-11T09:53:01.604Z,82.70
2023-02-11T09:55:40.245Z,58.55
2023-02-11T09:58:30.191Z,61.80
2023-02-11T10:01:03.210Z,55.80
2023-02-11T10:03:49.064Z,57.20
2023-02-11T10:06:25.889Z,51.50
2023-02-11T10:09:15.632Z,50.78
2023-02-11T10:11:53.483Z,53.92
2023-02-11T10:14:46.850Z,61.50
2023-02-11T10:17:29.963Z,52.22
2023-02-11T10:20:17.173Z,48.63
2023-02-11T10:22:51.822Z,50.42
2023-02-11T10:25:29.159Z,56.13
2023-02-11T10:28:00.339Z,50.03
2023-02-11T10:31:03.102Z,47.17
2023-02-11T10:33:46.930Z,49.72
2023-02-11T10:36:18.106Z,51.47
2023-02-11T10:42:13.803Z,65.57
2023-02-11T10:45:04.337Z,53.30
2023-02-11T10:47:38.100Z,47.20
2023-02-11T10:50:28.712Z,45.45
2023-02-11T10:53:22.075Z,58.65
2023-02-11T10:55:57.743Z,58.20
2023-02-11T10:58:37.935Z,163.98
2023-02-11T11:01:22.467Z,94.93
2023-02-11T11:03:53.560Z,43.15
2023-02-11T11:06:35.674Z,42.80
2023-02-11T11:09:05.067Z,39.10
2023-02-11T11:11:33.424Z,46.17
2023-02-11T11:14:03.756Z,37.80
2023-02-11T11:16:34.388Z,38.80
2023-02-11T11:19:08.491Z,41.75
2023-02-11T11:21:42.949Z,54.40
2023-02-11T11:24:21.458Z,34.15
2023-02-11T11:27:02.445Z,38.70
2023-02-11T11:29:36.059Z,36.03
2023-02-11T11:32:12.958Z,61.70
2023-02-11T11:34:43.473Z,45.53
2023-02-11T11:37:35.455Z,38.90
2023-02-11T11:40:17.349Z,61.85
2023-02-11T11:42:45.737Z,34.08
2023-02-11T11:45:16.260Z,34.40
2023-02-11T11:47:56.870Z,41.80
2023-02-11T11:50:45.969Z,32.95
2023-02-11T11:53:26.084Z,50.05
2023-02-11T11:56:01.961Z,36.45
2023-02-11T11:58:32.981Z,32.60
2023-02-11T12:01:07.117Z,29.63
2023-02-11T12:03:53.889Z,36.78
2023-02-11T12:06:40.119Z,39.55
2023-02-11T12:09:21.401Z,46.45
2023-02-11T12:12:13.973Z,45.35
2023-02-11T12:15:07.698Z,48.50
2023-02-11T12:17:47.764Z,44.80
2023-02-11T12:20:56.219Z,48.25
2023-02-11T12:23:42.122Z,66.68
2023-02-11T12:26:16.033Z,66.55
2023-02-11T12:29:14.813Z,47.13
2023-02-11T12:32:14.068Z,43.08
2023-02-11T12:34:54.254Z,42.72
2023-02-11T12:37:42.356Z,37.22
2023-02-11T12:40:10.968Z,35.53
2023-02-11T12:43:09.233Z,45.67
2023-02-11T12:46:09.007Z,43.05
2023-02-11T12:49:12.179Z,48.15
2023-02-11T12:52:01.568Z,40.17
2023-02-11T12:54:40.722Z,44.03
2023-02-11T12:57:19.187Z,42.50
2023-02-11T12:59:57.397Z,41.10
2023-02-11T13:02:32.050Z,44.90
2023-02-11T13:05:23.082Z,43.15
2023-02-11T13:07:54.877Z,40.10
2023-02-11T13:10:35.703Z,41.57
2023-02-11T13:13:33.817Z,46.03
2023-02-11T13:16:08.630Z,47.63
2023-02-11T13:19:02.287Z,65.65
2023-02-11T13:21:36.861Z,43.13
2023-02-11T13:24:26.875Z,40.93
2023-02-11T13:26:55.374Z,43.40
2023-02-11T13:29:42.340Z,44.88
2023-02-11T13:32:15.237Z,45.97
2023-02-11T13:34:43.224Z,44.47
2023-02-11T13:37:47.824Z,52.70
2023-02-11T13:40:24.447Z,43.90
2023-02-11T13:43:04.580Z,41.72
2023-02-11T13:45:46.979Z,46.17
2023-02-11T13:48:22.987Z,45.88
2023-02-11T13:51:04.050Z,46.73
2023-02-11T13:53:56.834Z,57.58
2023-02-11T13:56:36.598Z,45.80
2023-02-11T13:59:26.284Z,58.60
2023-02-11T14:02:13.094Z,64.28
2023-02-11T14:05:24.179Z,45.47
2023-02-11T14:08:29.097Z,46.15
2023-02-11T14:11:13.416Z,47.00
2023-02-11T14:13:53.785Z,43.97
2023-02-11T14:16:36.935Z,44.53
2023-02-11T14:19:06.942Z,42.20
2023-02-11T14:21:38.713Z,45.38
2023-02-11T14:24:07.522Z,50.20
2023-02-11T14:26:56.265Z,49.70
2023-02-11T14:29:38.954Z,47.65
2023-02-11T14:32:15.123Z,45.40
2023-02-11T14:35:15.625Z,41.80
2023-02-11T14:38:08.359Z,43.80
2023-02-11T14:41:08.556Z,43.35
2023-02-11T14:43:47.353Z,48.20
2023-02-11T14:46:17.290Z,56.20
2023-02-11T14:48:48.703Z,54.30
2023-02-11T14:51:21.422Z,46.45
2023-02-11T14:54:02.339Z,54.38
2023-02-11T14:56:35.055Z,47.75
2023-02-11T14:59:03.546Z,49.87
2023-02-11T15:01:34.437Z,62.42
2023-02-11T15:04:05.785Z,60.03
2023-02-11T15:06:38.859Z,51.45
2023-02-11T15:13:22.411Z,62.53
2023-02-11T15:15:59.816Z,65.45
2023-02-11T15:18:33.966Z,52.95
2023-02-11T15:21:02.853Z,48.90
2023-02-11T15:23:31.930Z,49.35
2023-02-11T15:26:05.134Z,50.37
2023-02-11T15:28:35.254Z,56.05
2023-02-11T15:31:15.498Z,55.55
2023-02-11T15:33:43.570Z,56.38
2023-02-11T15:36:13.676Z,65.35
2023-02-11T15:38:41.813Z,85.40
2023-02-11T15:41:56.434Z,95.60
2023-02-11T15:44:32.891Z,84.45
2023-02-11T15:47:01.450Z,81.45
2023-02-11T15:49:29.395Z,77.97
2023-02-11T15:51:58.574Z,77.43
2023-02-11T15:54:29.940Z,85.57
2023-02-11T15:57:08.778Z,96.78
2023-02-11T15:59:46.370Z,96.05
2023-02-11T16:02:20.189Z,106.60
2023-02-11T16:04:53.624Z,88.53
2023-02-11T16:07:57.731Z,94.90
2023-02-11T16:10:35.655Z,97.13
2023-02-11T16:13:10.030Z,121.30
2023-02-11T16:15:43.270Z,103.30
2023-02-11T16:18:49.471Z,115.87
2023-02-11T16:21:34.723Z,91.97
2023-02-11T16:24:04.455Z,102.13
2023-02-11T16:26:34.522Z,107.45
2023-02-11T16:29:15.522Z,106.50
2023-02-11T16:31:46.354Z,101.53
2023-02-11T16:34:23.152Z,115.05
2023-02-11T16:36:52.566Z,133.85
2023-02-11T16:39:24.741Z,117.15
2023-02-11T16:41:52.804Z,112.45
2023-02-11T16:44:20.958Z,112.53
2023-02-11T16:46:49.175Z,117.47
2023-02-11T16:49:29.395Z,106.90
2023-02-11T16:52:04.032Z,110.25
2023-02-11T16:54:32.627Z,109.53
2023-02-11T16:57:00.375Z,89.30
2023-02-11T16:59:28.899Z,82.05
2023-02-11T17:01:58.342Z,75.88
2023-02-11T17:04:30.738Z,72.68
2023-02-11T17:06:58.934Z,76.85
2023-02-11T17:09:30.834Z,71.50
2023-02-11T17:11:59.451Z,65.90
2023-02-11T17:14:27.898Z,55.17
2023-02-11T17:16:55.871Z,103.25
2023-02-11T17:19:24.452Z,88.07
2023-02-11T17:21:53.380Z,82.93
2023-02-11T17:24:22.396Z,75.78
2023-02-11T17:26:51.260Z,78.18
2023-02-11T17:29:25.353Z,73.07
2023-02-11T17:31:54.378Z,70.38
2023-02-11T17:34:23.481Z,96.10
2023-02-11T17:36:52.325Z,88.25
2023-02-11T17:39:21.533Z,80.68
2023-02-11T17:41:49.584Z,84.00
2023-02-11T17:44:18.220Z,80.13
2023-02-11T17:46:46.279Z,91.97
2023-02-11T17:49:14.564Z,83.72
2023-02-11T17:51:42.542Z,86.35
2023-02-11T17:54:17.703Z,92.13
2023-02-11T17:56:49.336Z,104.35
2023-02-11T17:59:18.712Z,98.73
2023-02-11T18:01:47.339Z,128.57
2023-02-11T18:04:18.668Z,102.55
2023-02-11T18:06:47.189Z,85.68
2023-02-11T18:09:15.284Z,80.18
2023-02-11T18:11:44.303Z,79.33
2023-02-11T18:14:12.507Z,68.53
2023-02-11T18:16:43.452Z,62.53
2023-02-11T18:19:13.419Z,66.88
2023-02-11T18:21:41.954Z,67.13
2023-02-11T18:24:10.433Z,62.00
2023-02-11T18:29:44.739Z,63.15
2023-02-11T18:32:13.500Z,63.30
2023-02-11T18:34:42.295Z,67.97
2023-02-11T18:37:10.928Z,69.37
2023-02-11T18:39:39.255Z,57.47
2023-02-11T18:42:07.206Z,67.07
2023-02-11T18:44:35.687Z,69.93
2023-02-11T18:47:03.953Z,71.13
2023-02-11T18:49:33.856Z,113.15
2023-02-11T18:52:03.504Z,106.07
2023-02-11T18:54:33.425Z,113.15
2023-02-11T18:57:02.103Z,130.63
2023-02-11T18:59:30.419Z,125.95
2023-02-11T19:01:58.570Z,129.57
2023-02-11T19:04:27.308Z,114.32
2023-02-11T19:06:55.738Z,121.53
2023-02-11T19:09:24.264Z,116.10
2023-02-11T19:11:54.731Z,106.55
2023-02-11T19:14:26.093Z,104.25
2023-02-11T19:16:57.332Z,96.78
2023-02-11T19:19:29.327Z,104.53
2023-02-11T19:21:58.864Z,107.43
2023-02-11T19:27:43.835Z,85.15
2023-02-11T19:30:13.035Z,85.63
2023-02-11T19:32:41.129Z,104.95
2023-02-11T19:35:09.894Z,100.47
2023-02-11T19:37:37.917Z,134.60
2023-02-11T19:40:07.890Z,116.88
2023-02-11T19:42:35.615Z,129.80
2023-02-11T19:45:04.643Z,148.40
2023-02-11T19:47:32.768Z,147.48
2023-02-11T19:50:01.150Z,142.73
2023-02-11T19:52:45.932Z,136.57
2023-02-11T19:55:14.200Z,105.78
2023-02-11T19:57:42.091Z,107.57
2023-02-11T20:00:11.652Z,101.55
2023-02-11T20:05:18.379Z,117.90
2023-02-11T20:07:46.595Z,117.45
2023-02-11T20:10:15.916Z,117.75
2023-02-11T20:12:43.693Z,103.85
2023-02-11T20:15:12.049Z,116.05
2023-02-11T20:17:39.863Z,112.38
2023-02-11T20:20:08.787Z,116.85
2023-02-11T20:22:36.755Z,134.15
2023-02-11T20:25:05.510Z,130.10
2023-02-11T20:27:33.804Z,130.40
2023-02-11T20:30:02.195Z,155.95
2023-02-11T20:32:32.811Z,127.63
2023-02-11T20:35:01.410Z,123.97
2023-02-11T20:37:29.443Z,82.03
2023-02-11T20:39:59.197Z,69.03
2023-02-11T20:42:27.470Z,55.40
2023-02-11T20:44:55.867Z,55.20
2023-02-11T20:47:23.540Z,65.65
2023-02-11T20:49:54.826Z,79.88
2023-02-11T20:52:22.743Z,79.68
2023-02-11T20:54:50.858Z,84.13
2023-02-11T20:57:18.860Z,89.47
2023-02-11T20:59:47.037Z,98.63
2023-02-11T21:02:15.056Z,94.82
2023-02-11T21:04:43.231Z,68.25
2023-02-11T21:07:11.430Z,68.00
2023-02-11T21:09:40.506Z,67.90
2023-02-11T21:12:09.243Z,81.88
2023-02-11T21:14:37.519Z,78.53
2023-02-11T21:17:30.181Z,113.25
2023-02-11T21:19:59.116Z,89.93
2023-02-11T21:22:26.790Z,83.55
2023-02-11T21:24:55.163Z,91.00
2023-02-11T21:27:24.929Z,84.90
2023-02-11T21:29:54.725Z,86.00
2023-02-11T21:32:22.645Z,101.53
2023-02-11T21:34:50.983Z,103.75
2023-02-11T21:37:18.699Z,103.97
2023-02-11T21:39:47.140Z,101.72
2023-02-11T21:42:15.214Z,123.22
2023-02-11T21:44:43.628Z,123.10
2023-02-11T21:47:11.413Z,111.35
2023-02-11T21:49:39.600Z,139.85
2023-02-11T21:52:07.543Z,128.63
2023-02-11T21:54:38.274Z,115.28
2023-02-11T21:57:06.793Z,119.13
2023-02-11T21:59:34.987Z,108.28
2023-02-11T22:02:02.772Z,94.90
2023-02-11T22:04:31.231Z,83.85
2023-02-11T22:06:59.678Z,96.35
2023-02-11T22:09:55.913Z,86.38
2023-02-11T22:12:23.859Z,78.70
2023-02-11T22:14:51.834Z,97.97
2023-02-11T22:17:19.829Z,114.70
2023-02-11T22:19:48.000Z,120.25
2023-02-11T22:22:19.006Z,100.45
2023-02-11T22:24:47.791Z,67.22
2023-02-11T22:27:20.058Z,77.53
2023-02-11T22:29:49.020Z,82.78
2023-02-11T22:32:18.209Z,77.68
2023-02-11T22:34:46.378Z,61.47
2023-02-11T22:37:14.627Z,58.20
2023-02-11T22:39:43.153Z,54.63
2023-02-11T22:42:11.119Z,62.70
2023-02-11T22:44:39.432Z,53.40
2023-02-11T22:47:07.281Z,57.28
2023-02-11T22:49:36.019Z,58.55
2023-02-11T22:52:03.953Z,52.35
2023-02-11T22:54:32.137Z,53.58
2023-02-11T22:56:59.779Z,58.47
2023-02-11T22:59:28.158Z,52.67
2023-02-11T23:01:56.000Z,50.40
2023-02-11T23:04:24.237Z,54.92
2023-02-11T23:06:52.234Z,54.42
2023-02-11T23:09:20.602Z,56.03
2023-02-11T23:11:50.471Z,55.83
2023-02-11T23:14:18.615Z,53.53
2023-02-11T23:16:46.485Z,50.60
2023-02-11T23:19:15.016Z,49.10
2023-02-11T23:21:42.906Z,54.03
2023-02-11T23:24:13.814Z,55.90
2023-02-11T23:26:43.288Z,54.50
2023-02-11T23:29:11.699Z,59.25
2023-02-11T23:31:41.084Z,65.38
2023-02-11T23:34:10.156Z,65.40
2023-02-11T23:36:38.106Z,64.10
2023-02-11T23:39:06.404Z,72.85
2023-02-11T23:41:34.169Z,68.78
2023-02-11T23:44:02.257Z,65.20
2023-02-11T23:46:30.136Z,64.30
2023-02-11T23:48:58.362Z,67.25
2023-02-11T23:51:26.236Z,66.18
2023-02-11T23:54:18.114Z,71.40
2023-02-11T23:56:46.436Z,77.90
2023-02-11T23:59:14.760Z,93.45
